Terminal Aerodrome Forecast
Issued by NWS

Home | Current Version | Previous Version | Graphics & Text | Print | Product List | Glossary On
Versions: 1 2 3 4 5 6 7 8 9 10 11 12 13 14 15 16 17 18 19 20 21 22 23 24 25 26 27 28
216
FTUS43 KABR 080523
TAFPIR
TAF
KPIR 080523Z 0806/0906 31021G31KT P6SM OVC025
     FM081200 31015KT P6SM BKN050
     FM082200 31010KT P6SM SCT080
     FM090200 32006KT P6SM SCT200=

USA.gov is the U.S. government's official web portal to all federal, state and local government web resources and services.